Time,TemperatureF,DewpointF,PressureIn,WindDirection,WindDirectionDegrees,WindSpeedMPH,WindSpeedGustMPH,Humidity,HourlyPrecipIn,Conditions,Clouds,dailyrainin,SoftwareType,DateUTC
2013-07-14 00:09:00,68.7,65.0,30.11,NNE,32,0.0,4.0,87,0.00,,,0.00,weatherlink.com 1.10,2013-07-14 05:09:00,
2013-07-14 00:24:00,68.4,64.0,30.11,ENE,65,2.0,4.0,87,0.00,,,0.00,weatherlink.com 1.10,2013-07-14 05:24:00,
2013-07-14 00:39:00,69.1,65.0,30.11,ENE,74,3.0,6.0,86,0.00,,,0.00,weatherlink.com 1.10,2013-07-14 05:39:00,
2013-07-14 00:54:00,69.2,65.0,30.11,ENE,71,2.0,5.0,86,0.00,,,0.00,weatherlink.com 1.10,2013-07-14 05:54:00,
2013-07-14 01:09:00,68.2,64.0,30.11,ENE,77,2.0,3.0,86,0.00,,,0.00,weatherlink.com 1.10,2013-07-14 06:09:00,
2013-07-14 01:24:00,67.9,64.0,30.11,ENE,71,2.0,5.0,88,0.00,,,0.00,weatherlink.com 1.10,2013-07-14 06:24:00,
2013-07-14 01:39:00,67.8,64.0,30.11,ENE,57,3.0,3.0,88,0.00,,,0.00,weatherlink.com 1.10,2013-07-14 06:39:00,
2013-07-14 01:54:00,67.7,64.0,30.11,ENE,65,2.0,4.0,89,0.00,,,0.00,weatherlink.com 1.10,2013-07-14 06:54:00,
2013-07-14 02:09:00,67.4,64.0,30.11,ENE,69,2.0,4.0,89,0.00,,,0.00,weatherlink.com 1.10,2013-07-14 07:09:00,
2013-07-14 02:24:00,66.7,63.0,30.11,ENE,71,2.0,3.0,89,0.00,,,0.00,weatherlink.com 1.10,2013-07-14 07:24:00,
2013-07-14 02:39:00,66.4,64.0,30.11,ENE,75,1.0,4.0,91,0.00,,,0.00,weatherlink.com 1.10,2013-07-14 07:39:00,
2013-07-14 02:54:00,65.8,63.0,30.11,East,81,2.0,3.0,91,0.00,,,0.00,weatherlink.com 1.10,2013-07-14 07:54:00,
2013-07-14 03:09:00,65.7,63.0,30.12,East,80,2.0,3.0,92,0.00,,,0.00,weatherlink.com 1.10,2013-07-14 08:09:00,
2013-07-14 03:24:00,65.9,64.0,30.12,ENE,64,4.0,5.0,93,0.00,,,0.00,weatherlink.com 1.10,2013-07-14 08:24:00,
2013-07-14 03:39:00,66.1,64.0,30.12,ENE,67,3.0,4.0,92,0.00,,,0.00,weatherlink.com 1.10,2013-07-14 08:39:00,
2013-07-14 03:54:00,65.8,64.0,30.12,ENE,74,1.0,4.0,92,0.00,,,0.00,weatherlink.com 1.10,2013-07-14 08:54:00,
2013-07-14 04:10:00,65.8,64.0,30.13,ENE,63,3.0,4.0,93,0.00,,,0.00,weatherlink.com 1.10,2013-07-14 09:10:00,
2013-07-14 04:25:00,66.0,64.0,30.13,ENE,78,2.0,4.0,93,0.00,,,0.00,weatherlink.com 1.10,2013-07-14 09:25:00,
2013-07-14 04:40:00,65.3,63.0,30.13,ENE,76,2.0,4.0,92,0.00,,,0.00,weatherlink.com 1.10,2013-07-14 09:40:00,
2013-07-14 04:55:00,65.1,63.0,30.13,ENE,78,2.0,4.0,93,0.00,,,0.00,weatherlink.com 1.10,2013-07-14 09:55:00,
2013-07-14 05:10:00,64.9,63.0,30.13,ENE,78,0.0,2.0,93,0.00,,,0.00,weatherlink.com 1.10,2013-07-14 10:10:00,
2013-07-14 05:25:00,64.7,63.0,30.13,ENE,78,2.0,2.0,93,0.00,,,0.00,weatherlink.com 1.10,2013-07-14 10:25:00,
2013-07-14 05:40:00,64.7,63.0,30.13,ENE,78,2.0,2.0,93,0.00,,,0.00,weatherlink.com 1.10,2013-07-14 10:40:00,
2013-07-14 05:55:00,65.4,64.0,30.14,ENE,64,2.0,4.0,94,0.00,,,0.00,weatherlink.com 1.10,2013-07-14 10:55:00,
2013-07-14 06:10:00,66.2,65.0,30.14,East,79,2.0,4.0,94,0.00,,,0.00,weatherlink.com 1.10,2013-07-14 11:10:00,
2013-07-14 06:25:00,67.0,65.0,30.15,ENE,63,3.0,5.0,94,0.00,,,0.00,weatherlink.com 1.10,2013-07-14 11:25:00,
2013-07-14 06:40:00,67.6,66.0,30.15,ENE,77,2.0,5.0,93,0.00,,,0.00,weatherlink.com 1.10,2013-07-14 11:40:00,
2013-07-14 06:55:00,68.2,66.0,30.15,ENE,76,5.0,6.0,92,0.00,,,0.00,weatherlink.com 1.10,2013-07-14 11:55:00,
2013-07-14 07:10:00,69.1,67.0,30.15,ENE,59,5.0,6.0,92,0.00,,,0.00,weatherlink.com 1.10,2013-07-14 12:10:00,
2013-07-14 07:25:00,70.1,67.0,30.14,East,90,4.0,7.0,91,0.00,,,0.00,weatherlink.com 1.10,2013-07-14 12:25:00,
2013-07-14 07:40:00,70.9,68.0,30.14,East,91,4.0,8.0,89,0.00,,,0.00,weatherlink.com 1.10,2013-07-14 12:40:00,
2013-07-14 07:55:00,72.3,69.0,30.14,East,83,7.0,8.0,88,0.00,,,0.00,weatherlink.com 1.10,2013-07-14 12:55:00,
2013-07-14 08:10:00,73.7,69.0,30.15,ESE,102,3.0,8.0,86,0.00,,,0.00,weatherlink.com 1.10,2013-07-14 13:10:00,
2013-07-14 08:25:00,75.2,70.0,30.15,SE,132,0.0,8.0,83,0.00,,,0.00,weatherlink.com 1.10,2013-07-14 13:25:00,
2013-07-14 08:40:00,76.6,70.0,30.15,SE,144,0.0,8.0,81,0.00,,,0.00,weatherlink.com 1.10,2013-07-14 13:40:00,
2013-07-14 08:55:00,77.7,71.0,30.15,SE,138,7.0,9.0,79,0.00,,,0.00,weatherlink.com 1.10,2013-07-14 13:55:00,
2013-07-14 09:10:00,77.9,71.0,30.15,East,88,4.0,10.0,79,0.00,,,0.00,weatherlink.com 1.10,2013-07-14 14:10:00,
2013-07-14 09:25:00,79.1,71.0,30.15,ESE,122,3.0,8.0,76,0.00,,,0.00,weatherlink.com 1.10,2013-07-14 14:25:00,
2013-07-14 09:40:00,80.0,71.0,30.16,SE,126,8.0,9.0,75,0.00,,,0.00,weatherlink.com 1.10,2013-07-14 14:40:00,
2013-07-14 09:55:00,80.6,72.0,30.16,SE,128,8.0,9.0,74,0.00,,,0.00,weatherlink.com 1.10,2013-07-14 14:55:00,
2013-07-14 10:10:00,81.1,72.0,30.16,ENE,76,4.0,8.0,73,0.00,,,0.00,weatherlink.com 1.10,2013-07-14 15:10:00,
2013-07-14 10:25:00,81.6,73.0,30.16,East,101,1.0,10.0,75,0.00,,,0.00,weatherlink.com 1.10,2013-07-14 15:25:00,
2013-07-14 10:41:00,82.6,72.0,30.16,East,96,4.0,9.0,71,0.00,,,0.00,weatherlink.com 1.10,2013-07-14 15:41:00,
2013-07-14 10:56:00,82.7,72.0,30.16,NNE,28,1.0,11.0,70,0.00,,,0.00,weatherlink.com 1.10,2013-07-14 15:56:00,
2013-07-14 11:11:00,83.5,73.0,30.16,East,82,2.0,9.0,70,0.00,,,0.00,weatherlink.com 1.10,2013-07-14 16:11:00,
2013-07-14 11:26:00,84.1,74.0,30.16,SE,142,3.0,9.0,72,0.00,,,0.00,weatherlink.com 1.10,2013-07-14 16:26:00,
2013-07-14 11:41:00,85.1,72.0,30.16,ESE,121,1.0,8.0,65,0.00,,,0.00,weatherlink.com 1.10,2013-07-14 16:41:00,
2013-07-14 11:56:00,85.6,72.0,30.16,East,84,2.0,7.0,64,0.00,,,0.00,weatherlink.com 1.10,2013-07-14 16:56:00,
2013-07-14 12:11:00,85.7,73.0,30.16,ENE,76,4.0,9.0,66,0.00,,,0.00,weatherlink.com 1.10,2013-07-14 17:11:00,
2013-07-14 12:26:00,85.6,71.0,30.16,NE,41,2.0,9.0,61,0.00,,,0.00,weatherlink.com 1.10,2013-07-14 17:26:00,
2013-07-14 12:41:00,86.5,72.0,30.16,SE,128,1.0,7.0,62,0.00,,,0.00,weatherlink.com 1.10,2013-07-14 17:41:00,
2013-07-14 12:56:00,86.8,69.0,30.16,ENE,75,4.0,8.0,55,0.00,,,0.00,weatherlink.com 1.10,2013-07-14 17:56:00,
2013-07-14 13:11:00,87.0,71.0,30.15,SE,126,7.0,9.0,59,0.00,,,0.00,weatherlink.com 1.10,2013-07-14 18:11:00,
2013-07-14 13:26:00,87.5,72.0,30.15,ENE,75,3.0,8.0,61,0.00,,,0.00,weatherlink.com 1.10,2013-07-14 18:26:00,
2013-07-14 13:41:00,87.3,71.0,30.15,SE,126,2.0,7.0,59,0.00,,,0.00,weatherlink.com 1.10,2013-07-14 18:41:00,
2013-07-14 13:56:00,86.3,70.0,30.14,ESE,116,3.0,6.0,58,0.00,,,0.00,weatherlink.com 1.10,2013-07-14 18:56:00,
2013-07-14 14:11:00,87.2,70.0,30.15,ENE,75,3.0,7.0,57,0.00,,,0.00,weatherlink.com 1.10,2013-07-14 19:11:00,
2013-07-14 14:26:00,85.6,70.0,30.15,ENE,62,3.0,5.0,60,0.00,,,0.00,weatherlink.com 1.10,2013-07-14 19:26:00,
2013-07-14 14:41:00,85.4,71.0,30.15,ESE,120,1.0,5.0,63,0.00,,,0.00,weatherlink.com 1.10,2013-07-14 19:41:00,
2013-07-14 14:56:00,86.3,71.0,30.14,ENE,69,3.0,8.0,61,0.00,,,0.00,weatherlink.com 1.10,2013-07-14 19:56:00,
2013-07-14 15:11:00,85.9,72.0,30.14,ENE,64,2.0,4.0,64,0.00,,,0.00,weatherlink.com 1.10,2013-07-14 20:11:00,
2013-07-14 15:26:00,86.5,72.0,30.14,ENE,75,4.0,9.0,62,0.00,,,0.00,weatherlink.com 1.10,2013-07-14 20:26:00,
2013-07-14 15:41:00,86.5,70.0,30.14,NE,55,4.0,8.0,59,0.00,,,0.00,weatherlink.com 1.10,2013-07-14 20:41:00,
2013-07-14 15:56:00,86.3,71.0,30.15,ENE,57,4.0,10.0,60,0.00,,,0.00,weatherlink.com 1.10,2013-07-14 20:56:00,
2013-07-14 16:11:00,85.3,70.0,30.14,NE,49,1.0,9.0,60,0.00,,,0.00,weatherlink.com 1.10,2013-07-14 21:11:00,
2013-07-14 16:26:00,86.2,70.0,30.14,ENE,71,6.0,11.0,59,0.00,,,0.00,weatherlink.com 1.10,2013-07-14 21:26:00,
2013-07-14 16:41:00,86.7,71.0,30.14,ENE,71,3.0,9.0,59,0.00,,,0.00,weatherlink.com 1.10,2013-07-14 21:41:00,
2013-07-14 16:56:00,84.8,70.0,30.14,East,96,2.0,6.0,61,0.00,,,0.00,weatherlink.com 1.10,2013-07-14 21:56:00,
2013-07-14 17:11:00,85.3,70.0,30.13,ENE,76,8.0,9.0,60,0.00,,,0.00,weatherlink.com 1.10,2013-07-14 22:11:00,
2013-07-14 17:26:00,86.7,71.0,30.13,ENE,57,4.0,8.0,59,0.00,,,0.00,weatherlink.com 1.10,2013-07-14 22:26:00,
2013-07-14 17:41:00,86.8,69.0,30.13,East,82,4.0,11.0,55,0.00,,,0.00,weatherlink.com 1.10,2013-07-14 22:41:00,
2013-07-14 17:57:00,86.8,70.0,30.13,ESE,111,7.0,8.0,57,0.00,,,0.00,weatherlink.com 1.10,2013-07-14 22:57:00,
2013-07-14 18:11:00,86.3,69.0,30.13,East,85,4.0,8.0,57,0.00,,,0.00,weatherlink.com 1.10,2013-07-14 23:11:00,
2013-07-14 18:27:00,86.1,71.0,30.13,East,80,5.0,8.0,60,0.00,,,0.00,weatherlink.com 1.10,2013-07-14 23:27:00,
2013-07-14 18:41:00,85.7,70.0,30.14,East,84,7.0,10.0,59,0.00,,,0.00,weatherlink.com 1.10,2013-07-14 23:41:00,
2013-07-14 18:56:00,85.4,70.0,30.14,East,99,3.0,9.0,61,0.00,,,0.00,weatherlink.com 1.10,2013-07-14 23:56:00,
2013-07-14 19:11:00,84.2,70.0,30.14,East,90,3.0,9.0,63,0.00,,,0.00,weatherlink.com 1.10,2013-07-15 00:11:00,
2013-07-14 19:26:00,83.0,70.0,30.14,East,90,3.0,6.0,66,0.00,,,0.00,weatherlink.com 1.10,2013-07-15 00:26:00,
2013-07-14 19:41:00,82.0,71.0,30.14,East,83,2.0,4.0,69,0.00,,,0.00,weatherlink.com 1.10,2013-07-15 00:41:00,
2013-07-14 19:56:00,81.0,71.0,30.14,ENE,78,0.0,3.0,72,0.00,,,0.00,weatherlink.com 1.10,2013-07-15 00:56:00,
2013-07-14 20:11:00,79.6,71.0,30.14,ENE,78,0.0,2.0,75,0.00,,,0.00,weatherlink.com 1.10,2013-07-15 01:11:00,
2013-07-14 20:26:00,78.5,71.0,30.14,ENE,77,0.0,1.0,77,0.00,,,0.00,weatherlink.com 1.10,2013-07-15 01:26:00,
2013-07-14 20:41:00,77.1,71.0,30.14,ENE,77,0.0,1.0,81,0.00,,,0.00,weatherlink.com 1.10,2013-07-15 01:41:00,
2013-07-14 20:56:00,76.2,70.0,30.15,ENE,76,0.0,1.0,82,0.00,,,0.00,weatherlink.com 1.10,2013-07-15 01:56:00,
2013-07-14 21:11:00,75.5,70.0,30.16,ENE,77,0.0,1.0,83,0.00,,,0.00,weatherlink.com 1.10,2013-07-15 02:11:00,
2013-07-14 21:26:00,75.1,70.0,30.16,ENE,69,0.0,2.0,85,0.00,,,0.00,weatherlink.com 1.10,2013-07-15 02:26:00,
2013-07-14 21:41:00,74.8,70.0,30.16,ENE,69,0.0,1.0,85,0.00,,,0.00,weatherlink.com 1.10,2013-07-15 02:41:00,
2013-07-14 21:56:00,74.2,70.0,30.16,ENE,69,0.0,0.0,86,0.00,,,0.00,weatherlink.com 1.10,2013-07-15 02:56:00,
2013-07-14 22:11:00,73.8,70.0,30.16,ENE,69,0.0,2.0,87,0.00,,,0.00,weatherlink.com 1.10,2013-07-15 03:11:00,
2013-07-14 22:26:00,73.6,70.0,30.16,ENE,68,0.0,1.0,88,0.00,,,0.00,weatherlink.com 1.10,2013-07-15 03:26:00,
2013-07-14 22:41:00,73.2,70.0,30.16,ENE,63,0.0,1.0,88,0.00,,,0.00,weatherlink.com 1.10,2013-07-15 03:41:00,
2013-07-14 22:56:00,72.8,70.0,30.17,ENE,63,0.0,1.0,89,0.00,,,0.00,weatherlink.com 1.10,2013-07-15 03:56:00,
2013-07-14 23:11:00,72.9,70.0,30.17,ENE,61,0.0,2.0,90,0.00,,,0.00,weatherlink.com 1.10,2013-07-15 04:11:00,
2013-07-14 23:26:00,73.3,70.0,30.17,ENE,61,1.0,2.0,89,0.00,,,0.00,weatherlink.com 1.10,2013-07-15 04:26:00,
2013-07-14 23:41:00,73.5,70.0,30.17,ENE,61,2.0,3.0,89,0.00,,,0.00,weatherlink.com 1.10,2013-07-15 04:41:00,
2013-07-14 23:56:00,74.0,70.0,30.17,ENE,66,2.0,3.0,88,0.00,,,0.00,weatherlink.com 1.10,2013-07-15 04:56:00,